createdAt,value
2018-03-28T00:00:22.765Z,11.98
2018-03-28T00:02:51.439Z,13.75
2018-03-28T00:05:19.834Z,13.93
2018-03-28T00:07:48.327Z,12.65
2018-03-28T00:10:16.745Z,12.15
2018-03-28T00:12:45.158Z,12.65
2018-03-28T00:15:14.338Z,12.20
2018-03-28T00:17:42.761Z,12.80
2018-03-28T00:20:11.235Z,11.32
2018-03-28T00:22:39.767Z,12.00
2018-03-28T00:25:08.146Z,11.75
2018-03-28T00:27:36.527Z,10.98
2018-03-28T00:30:04.910Z,12.30
2018-03-28T00:32:33.286Z,12.05
2018-03-28T00:35:01.637Z,12.32
2018-03-28T00:37:30.020Z,11.43
2018-03-28T00:39:58.521Z,12.75
2018-03-28T00:42:26.945Z,13.43
2018-03-28T00:44:56.755Z,10.73
2018-03-28T00:47:25.341Z,12.05
2018-03-28T00:49:53.694Z,12.75
2018-03-28T00:52:22.358Z,13.40
2018-03-28T00:54:50.741Z,12.52
2018-03-28T00:57:19.289Z,11.48
2018-03-28T00:59:47.902Z,14.65
2018-03-28T01:02:16.287Z,14.20
2018-03-28T01:04:44.661Z,14.85
2018-03-28T01:07:13.179Z,14.95
2018-03-28T01:09:41.567Z,14.43
2018-03-28T01:12:09.941Z,14.65
2018-03-28T01:14:38.339Z,16.05
2018-03-28T01:17:06.909Z,14.63
2018-03-28T01:19:35.498Z,15.68
2018-03-28T01:22:03.895Z,13.55
2018-03-28T01:24:32.260Z,15.25
2018-03-28T01:27:00.653Z,14.98
2018-03-28T01:29:29.366Z,13.73
2018-03-28T01:31:57.760Z,15.75
2018-03-28T01:34:26.169Z,15.60
2018-03-28T01:36:55.342Z,15.95
2018-03-28T01:39:23.690Z,15.30
2018-03-28T01:41:52.219Z,15.95
2018-03-28T01:44:20.668Z,15.60
2018-03-28T01:46:49.098Z,15.48
2018-03-28T01:49:17.475Z,15.02
2018-03-28T01:51:45.890Z,15.20
2018-03-28T01:54:14.347Z,14.90
2018-03-28T01:56:42.745Z,17.48
2018-03-28T01:59:11.272Z,17.70
2018-03-28T02:01:39.637Z,19.05
2018-03-28T02:04:08.037Z,18.52
2018-03-28T02:06:36.455Z,18.70
2018-03-28T02:09:05.635Z,16.55
2018-03-28T02:11:34.116Z,19.25
2018-03-28T02:14:02.510Z,18.70
2018-03-28T02:16:30.931Z,19.50
2018-03-28T02:18:59.417Z,18.87
2018-03-28T02:21:27.846Z,18.12
2018-03-28T02:23:56.233Z,19.00
2018-03-28T02:26:25.667Z,18.90
2018-03-28T02:28:54.082Z,19.85
2018-03-28T02:31:22.439Z,21.00
2018-03-28T02:33:50.805Z,20.30
2018-03-28T02:36:19.234Z,19.25
2018-03-28T02:38:48.659Z,19.98
2018-03-28T02:41:17.892Z,20.75
2018-03-28T02:43:48.059Z,20.33
2018-03-28T02:46:16.945Z,20.92
2018-03-28T02:48:46.023Z,19.10
2018-03-28T02:51:14.579Z,21.15
2018-03-28T02:53:43.105Z,19.25
2018-03-28T02:56:11.484Z,20.65
2018-03-28T02:58:39.874Z,21.62
2018-03-28T03:01:08.438Z,20.12
2018-03-28T03:03:37.944Z,20.30
2018-03-28T03:06:08.277Z,20.55
2018-03-28T03:08:36.894Z,23.65
2018-03-28T03:11:05.300Z,19.67
2018-03-28T03:13:34.545Z,22.48
2018-03-28T03:16:03.660Z,21.98
2018-03-28T03:18:32.060Z,20.83
2018-03-28T03:21:00.470Z,20.62
2018-03-28T03:23:28.992Z,20.95
2018-03-28T03:25:57.333Z,17.67
2018-03-28T03:28:26.050Z,19.67
2018-03-28T03:30:54.677Z,20.70
2018-03-28T03:33:23.079Z,20.70
2018-03-28T03:35:51.800Z,19.60
2018-03-28T03:38:20.283Z,19.48
2018-03-28T03:40:48.730Z,18.73
2018-03-28T03:43:17.186Z,20.95
2018-03-28T03:45:45.591Z,19.77
2018-03-28T03:48:13.959Z,21.92
2018-03-28T03:50:42.850Z,20.90
2018-03-28T03:53:11.315Z,19.40
2018-03-28T03:55:39.758Z,21.33
2018-03-28T03:58:08.308Z,19.15
2018-03-28T04:00:36.686Z,18.87
2018-03-28T04:03:05.096Z,19.02
2018-03-28T04:05:33.555Z,18.30
2018-03-28T04:08:01.889Z,19.58
2018-03-28T04:10:31.938Z,20.33
2018-03-28T04:13:00.415Z,16.70
2018-03-28T04:15:28.799Z,17.25
2018-03-28T04:17:57.247Z,17.77
2018-03-28T04:20:25.735Z,16.52
2018-03-28T04:22:54.139Z,19.12
2018-03-28T04:25:22.509Z,16.10
2018-03-28T04:27:51.176Z,16.58
2018-03-28T04:30:19.561Z,19.20
2018-03-28T04:32:47.997Z,19.40
2018-03-28T04:35:16.622Z,19.40
2018-03-28T04:37:45.004Z,19.85
2018-03-28T04:40:13.470Z,19.35
2018-03-28T04:42:41.918Z,17.87
2018-03-28T04:45:10.300Z,17.08
2018-03-28T04:47:38.699Z,17.00
2018-03-28T04:50:07.119Z,16.70
2018-03-28T04:52:35.656Z,18.10
2018-03-28T04:55:04.415Z,17.52
2018-03-28T04:57:32.827Z,15.93
2018-03-28T05:00:01.213Z,15.63
2018-03-28T05:02:29.637Z,17.23
2018-03-28T05:04:58.529Z,17.65
2018-03-28T05:07:26.930Z,15.52
2018-03-28T05:10:06.297Z,19.35
2018-03-28T05:12:34.716Z,18.27
2018-03-28T05:15:03.240Z,17.05
2018-03-28T05:17:31.713Z,16.25
2018-03-28T05:20:00.092Z,17.52
2018-03-28T05:22:28.583Z,16.48
2018-03-28T05:24:57.149Z,16.75
2018-03-28T05:27:25.733Z,16.33
2018-03-28T05:29:54.103Z,13.62
2018-03-28T05:32:22.543Z,15.40
2018-03-28T05:34:51.121Z,14.93
2018-03-28T05:37:19.483Z,16.87
2018-03-28T05:39:48.105Z,14.80
2018-03-28T05:42:16.522Z,16.27
2018-03-28T05:44:44.908Z,14.68
2018-03-28T05:47:13.547Z,14.18
2018-03-28T05:49:42.208Z,14.05
2018-03-28T05:52:11.119Z,13.32
2018-03-28T05:54:39.551Z,15.10
2018-03-28T05:57:08.033Z,14.45
2018-03-28T05:59:36.377Z,14.27
2018-03-28T06:02:04.868Z,14.23
2018-03-28T06:04:33.299Z,13.98
2018-03-28T06:07:02.776Z,13.43
2018-03-28T06:09:31.190Z,12.45
2018-03-28T06:11:59.591Z,12.50
2018-03-28T06:14:27.983Z,12.27
2018-03-28T06:16:56.406Z,11.95
2018-03-28T06:19:24.880Z,12.63
2018-03-28T06:21:53.288Z,12.68
2018-03-28T06:24:22.265Z,13.30
2018-03-28T06:26:50.775Z,13.35
2018-03-28T06:29:19.275Z,12.18
2018-03-28T06:31:49.326Z,23.85
2018-03-28T06:34:17.857Z,13.77
2018-03-28T06:36:46.514Z,12.50
2018-03-28T06:39:15.512Z,10.90
2018-03-28T06:41:44.179Z,12.63
2018-03-28T06:44:12.573Z,13.18
2018-03-28T06:46:41.086Z,13.10
2018-03-28T06:49:09.825Z,12.23
2018-03-28T06:51:38.253Z,13.27
2018-03-28T06:56:57.609Z,12.05
2018-03-28T06:59:25.972Z,10.75
2018-03-28T07:01:54.483Z,13.43
2018-03-28T07:04:23.000Z,10.38
2018-03-28T07:06:51.801Z,9.63
2018-03-28T07:09:20.210Z,11.60
2018-03-28T07:11:49.058Z,9.75
2018-03-28T07:14:17.490Z,11.95
2018-03-28T07:16:45.947Z,10.25
2018-03-28T07:19:15.695Z,11.07
2018-03-28T07:21:44.068Z,9.63
2018-03-28T07:24:12.503Z,10.70
2018-03-28T07:26:41.123Z,9.90
2018-03-28T07:29:09.511Z,10.45
2018-03-28T07:31:37.898Z,9.60
2018-03-28T07:34:06.274Z,9.52
2018-03-28T07:36:34.663Z,9.55
2018-03-28T07:39:03.114Z,9.75
2018-03-28T07:41:31.899Z,8.98
2018-03-28T07:44:00.247Z,9.45
2018-03-28T07:46:29.569Z,8.63
2018-03-28T07:48:58.365Z,9.13
2018-03-28T07:51:27.687Z,10.48
2018-03-28T07:53:56.144Z,10.55
2018-03-28T07:56:24.697Z,9.40
2018-03-28T07:58:53.166Z,8.82
2018-03-28T08:01:21.592Z,9.00
2018-03-28T08:03:50.702Z,9.00
2018-03-28T08:06:21.001Z,9.63
2018-03-28T08:08:49.554Z,8.82
2018-03-28T08:11:18.110Z,9.40
2018-03-28T08:13:46.619Z,9.70
2018-03-28T08:16:15.588Z,9.88
2018-03-28T08:18:44.036Z,9.85
2018-03-28T08:21:12.650Z,9.82
2018-03-28T08:23:41.127Z,9.57
2018-03-28T08:26:09.906Z,10.43
2018-03-28T08:28:38.415Z,8.82
2018-03-28T08:31:07.769Z,10.40
2018-03-28T08:33:37.873Z,9.95
2018-03-28T08:36:06.285Z,9.93
2018-03-28T08:38:34.687Z,9.90
2018-03-28T08:41:03.644Z,8.63
2018-03-28T08:43:31.999Z,10.48
2018-03-28T08:46:00.378Z,9.80
2018-03-28T08:48:28.773Z,10.23
2018-03-28T08:50:57.299Z,10.15
2018-03-28T08:53:25.677Z,10.13
2018-03-28T08:55:54.060Z,8.43
2018-03-28T08:58:27.527Z,9.32
2018-03-28T09:00:56.878Z,10.10
2018-03-28T09:03:25.350Z,10.52
2018-03-28T09:05:53.876Z,10.38
2018-03-28T09:08:22.770Z,9.50
2018-03-28T09:10:51.217Z,11.07
2018-03-28T09:13:19.678Z,10.63
2018-03-28T09:15:48.523Z,12.37
2018-03-28T09:18:17.069Z,13.20
2018-03-28T09:20:46.508Z,10.32
2018-03-28T09:23:15.073Z,12.30
2018-03-28T09:25:43.643Z,11.15
2018-03-28T09:28:12.091Z,11.82
2018-03-28T09:30:41.360Z,11.12
2018-03-28T09:33:09.746Z,11.55
2018-03-28T09:35:38.148Z,10.77
2018-03-28T09:38:07.451Z,11.43
2018-03-28T09:40:35.862Z,10.95
2018-03-28T09:43:04.352Z,11.35
2018-03-28T09:45:33.026Z,9.20
2018-03-28T09:48:01.455Z,9.90
2018-03-28T09:50:30.570Z,9.93
2018-03-28T09:52:59.666Z,9.70
2018-03-28T09:55:28.245Z,10.63
2018-03-28T09:57:56.724Z,11.18
2018-03-28T10:00:27.328Z,10.23
2018-03-28T10:03:01.218Z,9.73
2018-03-28T10:05:35.461Z,8.60
2018-03-28T10:08:04.077Z,10.55
2018-03-28T10:10:32.470Z,9.15
2018-03-28T10:13:00.908Z,9.30
2018-03-28T10:15:29.787Z,10.13
2018-03-28T10:17:58.159Z,8.05
2018-03-28T10:20:26.951Z,8.55
2018-03-28T10:22:55.652Z,9.60
2018-03-28T10:25:24.140Z,9.25
2018-03-28T10:27:53.364Z,8.32
2018-03-28T10:30:22.951Z,8.50
2018-03-28T10:32:51.828Z,8.23
2018-03-28T10:35:22.625Z,7.82
2018-03-28T10:37:51.083Z,7.22
2018-03-28T10:40:19.569Z,11.05
2018-03-28T10:42:48.044Z,7.55
2018-03-28T10:45:17.108Z,9.02
2018-03-28T10:47:45.708Z,8.80
2018-03-28T10:50:14.705Z,7.87
2018-03-28T10:52:43.188Z,7.80
2018-03-28T10:55:11.710Z,8.00
2018-03-28T10:57:40.550Z,7.37
2018-03-28T11:00:08.878Z,7.35
2018-03-28T11:02:37.342Z,8.90
2018-03-28T11:05:06.153Z,6.72
2018-03-28T11:07:34.517Z,8.27
2018-03-28T11:10:04.602Z,8.20
2018-03-28T11:12:33.177Z,7.32
2018-03-28T11:15:01.561Z,8.23
2018-03-28T11:17:30.030Z,7.93
2018-03-28T11:19:58.607Z,8.55
2018-03-28T11:22:27.860Z,9.30
2018-03-28T11:24:56.637Z,9.27
2018-03-28T11:27:25.213Z,8.50
2018-03-28T11:29:53.805Z,7.07
2018-03-28T11:32:22.477Z,7.62
2018-03-28T11:34:50.997Z,8.10
2018-03-28T11:37:19.616Z,8.68
2018-03-28T11:39:48.473Z,8.38
2018-03-28T11:42:17.182Z,7.68
2018-03-28T11:44:45.777Z,7.82
2018-03-28T11:47:14.396Z,9.18
2018-03-28T11:49:44.751Z,6.80
2018-03-28T11:52:13.530Z,8.93
2018-03-28T11:54:42.383Z,7.93
2018-03-28T11:57:11.513Z,8.10
2018-03-28T11:59:41.279Z,9.30
2018-03-28T12:02:10.219Z,8.00
2018-03-28T12:04:38.750Z,9.68
2018-03-28T12:07:07.361Z,8.35
2018-03-28T12:09:36.018Z,10.10
2018-03-28T12:12:04.530Z,8.18
2018-03-28T12:14:32.993Z,9.95
2018-03-28T12:17:01.462Z,10.10
2018-03-28T12:19:30.020Z,10.52
2018-03-28T12:21:58.659Z,11.68
2018-03-28T12:24:27.552Z,12.30
2018-03-28T12:26:56.302Z,11.60
2018-03-28T12:29:25.351Z,10.60
2018-03-28T12:31:54.009Z,10.70
2018-03-28T12:34:22.672Z,11.32
2018-03-28T12:36:51.843Z,11.60
2018-03-28T12:39:20.374Z,12.05
2018-03-28T12:41:49.278Z,11.45
2018-03-28T12:44:17.855Z,10.63
2018-03-28T12:46:46.229Z,13.25
2018-03-28T12:49:15.339Z,12.85
2018-03-28T12:51:43.960Z,10.93
2018-03-28T12:54:12.616Z,12.52
2018-03-28T12:56:42.620Z,12.80
2018-03-28T12:59:11.509Z,13.62
2018-03-28T13:01:40.188Z,13.30
2018-03-28T13:04:08.635Z,13.75
2018-03-28T13:06:37.957Z,11.85
2018-03-28T13:09:06.503Z,14.95
2018-03-28T13:11:35.255Z,12.37
2018-03-28T13:14:03.663Z,11.70
2018-03-28T13:16:32.035Z,12.57
2018-03-28T13:19:01.038Z,14.10
2018-03-28T13:21:29.958Z,13.75
2018-03-28T13:23:59.056Z,13.88
2018-03-28T13:26:27.506Z,13.98
2018-03-28T13:28:55.981Z,14.65
2018-03-28T13:31:24.415Z,11.55
2018-03-28T13:33:52.884Z,12.45
2018-03-28T13:36:21.395Z,12.10
2018-03-28T13:38:53.863Z,11.00
2018-03-28T13:41:22.479Z,9.25
2018-03-28T13:43:51.176Z,11.48
2018-03-28T13:46:20.772Z,8.65
2018-03-28T13:48:49.740Z,12.20
2018-03-28T13:51:26.920Z,13.27
2018-03-28T13:53:55.899Z,13.15
2018-03-28T13:56:25.493Z,11.38
2018-03-28T13:58:53.996Z,12.80
2018-03-28T14:01:22.512Z,13.75
2018-03-28T14:03:51.181Z,10.75
2018-03-28T14:06:20.206Z,12.43
2018-03-28T14:08:48.938Z,10.38
2018-03-28T14:11:18.642Z,11.45
2018-03-28T14:13:47.459Z,16.55
2018-03-28T14:16:16.459Z,13.43
2018-03-28T14:18:44.877Z,13.38
2018-03-28T14:21:13.634Z,13.43
2018-03-28T14:23:42.328Z,14.63
2018-03-28T14:26:10.962Z,15.45
2018-03-28T14:28:42.672Z,15.32
2018-03-28T14:31:11.512Z,11.68
2018-03-28T14:33:40.448Z,17.45
2018-03-28T14:36:10.627Z,19.55
2018-03-28T14:38:39.032Z,16.70
2018-03-28T14:41:07.615Z,19.42
2018-03-28T14:43:36.772Z,19.15
2018-03-28T14:46:05.199Z,20.25
2018-03-28T14:48:34.612Z,17.52
2018-03-28T14:51:03.348Z,17.15
2018-03-28T14:53:31.916Z,17.58
2018-03-28T14:56:00.347Z,18.30
2018-03-28T14:58:28.900Z,21.05
2018-03-28T15:00:57.278Z,18.40
2018-03-28T15:03:26.365Z,17.00
2018-03-28T15:05:55.387Z,18.65
2018-03-28T15:08:23.998Z,18.35
2018-03-28T15:10:52.432Z,16.23
2018-03-28T15:13:21.933Z,14.98
2018-03-28T15:15:50.360Z,20.92
2018-03-28T15:18:18.946Z,17.83
2018-03-28T15:20:48.655Z,17.08
2018-03-28T15:23:17.812Z,18.05
2018-03-28T15:25:46.348Z,20.50
2018-03-28T15:28:15.301Z,18.08
2018-03-28T15:30:44.679Z,19.87
2018-03-28T15:33:13.256Z,17.55
2018-03-28T15:35:42.149Z,18.87
2018-03-28T15:38:25.648Z,21.12
2018-03-28T15:41:01.770Z,21.48
2018-03-28T15:43:31.618Z,19.60
2018-03-28T15:46:00.589Z,19.83
2018-03-28T15:48:30.232Z,18.33
2018-03-28T15:50:58.679Z,22.55
2018-03-28T15:53:27.058Z,18.62
2018-03-28T15:55:56.520Z,20.08
2018-03-28T15:58:25.156Z,20.75
2018-03-28T16:00:54.874Z,19.50
2018-03-28T16:03:24.299Z,22.17
2018-03-28T16:05:53.036Z,20.12
2018-03-28T16:08:21.754Z,16.83
2018-03-28T16:10:50.169Z,18.45
2018-03-28T16:13:18.659Z,16.20
2018-03-28T16:15:47.585Z,18.85
2018-03-28T16:18:16.876Z,19.33
2018-03-28T16:20:45.672Z,17.40
2018-03-28T16:23:18.111Z,16.80
2018-03-28T16:25:46.974Z,15.65
2018-03-28T16:28:15.704Z,17.60
2018-03-28T16:30:44.856Z,14.68
2018-03-28T16:33:14.133Z,15.13
2018-03-28T16:35:43.460Z,12.37
2018-03-28T16:38:12.953Z,12.95
2018-03-28T16:40:41.652Z,13.70
2018-03-28T16:43:12.234Z,12.77
2018-03-28T16:45:42.964Z,14.65
2018-03-28T16:48:11.554Z,12.85
2018-03-28T16:50:40.235Z,12.15
2018-03-28T16:53:09.140Z,13.65
2018-03-28T16:55:37.608Z,14.43
2018-03-28T16:58:05.975Z,13.20
2018-03-28T17:00:34.625Z,12.75
2018-03-28T17:03:03.024Z,12.43
2018-03-28T17:05:31.651Z,10.95
2018-03-28T17:08:00.218Z,12.82
2018-03-28T17:10:28.889Z,12.05
2018-03-28T17:12:58.154Z,13.43
2018-03-28T17:15:27.124Z,14.20
2018-03-28T17:17:56.252Z,12.45
2018-03-28T17:20:24.990Z,13.05
2018-03-28T17:22:55.702Z,13.65
2018-03-28T17:25:24.725Z,13.38
2018-03-28T17:27:53.207Z,13.62
2018-03-28T17:30:21.943Z,13.95
2018-03-28T17:32:50.843Z,15.23
2018-03-28T17:35:20.040Z,15.32
2018-03-28T17:37:48.808Z,12.45
2018-03-28T17:40:17.511Z,16.33
2018-03-28T17:42:46.463Z,15.85
2018-03-28T17:45:16.012Z,17.35
2018-03-28T17:47:45.419Z,16.23
2018-03-28T17:50:14.621Z,17.55
2018-03-28T17:52:45.122Z,19.33
2018-03-28T17:55:14.461Z,16.05
2018-03-28T17:57:43.261Z,18.45
2018-03-28T18:00:12.103Z,18.00
2018-03-28T18:02:41.855Z,20.37
2018-03-28T18:05:10.402Z,18.15
2018-03-28T18:07:39.075Z,18.10
2018-03-28T18:10:08.002Z,21.75
2018-03-28T18:12:36.648Z,19.15
2018-03-28T18:15:05.045Z,17.75
2018-03-28T18:17:33.543Z,19.77
2018-03-28T18:20:02.044Z,19.95
2018-03-28T18:22:30.616Z,21.70
2018-03-28T18:24:59.103Z,20.90
2018-03-28T18:27:27.774Z,22.98
2018-03-28T18:29:57.271Z,22.98
2018-03-28T18:32:26.178Z,21.17
2018-03-28T18:34:55.664Z,25.17
2018-03-28T18:37:24.514Z,21.27
2018-03-28T18:39:56.240Z,22.87
2018-03-28T18:42:26.607Z,22.83
2018-03-28T18:44:55.042Z,22.77
2018-03-28T18:47:23.976Z,24.70
2018-03-28T18:49:54.527Z,25.45
2018-03-28T18:52:25.553Z,26.23
2018-03-28T18:54:55.757Z,26.90
2018-03-28T18:57:24.666Z,23.50
2018-03-28T18:59:53.205Z,25.58
2018-03-28T19:02:23.156Z,26.62
2018-03-28T19:04:52.373Z,25.40
2018-03-28T19:07:21.296Z,23.85
2018-03-28T19:09:50.046Z,23.08
2018-03-28T19:12:18.622Z,19.65
2018-03-28T19:14:47.253Z,23.55
2018-03-28T19:17:16.614Z,24.25
2018-03-28T19:19:49.943Z,26.05
2018-03-28T19:22:19.378Z,29.50
2018-03-28T19:24:47.986Z,25.45
2018-03-28T19:27:17.492Z,25.80
2018-03-28T19:29:47.107Z,24.25
2018-03-28T19:32:15.683Z,22.60
2018-03-28T19:34:44.274Z,24.40
2018-03-28T19:37:12.941Z,21.87
2018-03-28T19:39:42.904Z,21.67
2018-03-28T19:42:11.766Z,21.25
2018-03-28T19:44:41.276Z,19.67
2018-03-28T19:47:09.953Z,23.23
2018-03-28T19:49:38.409Z,22.90
2018-03-28T19:52:06.854Z,22.33
2018-03-28T19:54:35.333Z,23.48
2018-03-28T19:57:03.737Z,23.23
2018-03-28T19:59:32.927Z,22.48
2018-03-28T20:02:02.510Z,19.50
2018-03-28T20:04:30.905Z,21.30
2018-03-28T20:06:59.866Z,22.33
2018-03-28T20:09:28.286Z,23.52
2018-03-28T20:11:56.823Z,18.75
2018-03-28T20:14:25.355Z,22.33
2018-03-28T20:16:54.060Z,22.83
2018-03-28T20:19:22.510Z,20.65
2018-03-28T20:21:51.320Z,20.30
2018-03-28T20:24:19.841Z,24.42
2018-03-28T20:26:48.546Z,21.10
2018-03-28T20:29:17.618Z,22.80
2018-03-28T20:31:46.181Z,21.58
2018-03-28T20:34:14.611Z,23.60
2018-03-28T20:36:44.196Z,24.92
2018-03-28T20:39:14.006Z,25.02
2018-03-28T20:41:51.131Z,26.35
2018-03-28T20:44:22.702Z,20.58
2018-03-28T20:46:52.347Z,22.62
2018-03-28T20:49:20.963Z,21.77
2018-03-28T20:51:49.565Z,23.55
2018-03-28T20:54:18.254Z,20.98
2018-03-28T20:56:46.789Z,25.52
2018-03-28T20:59:15.837Z,24.02
2018-03-28T21:01:44.671Z,26.40
2018-03-28T21:04:13.665Z,23.65
2018-03-28T21:06:45.637Z,25.65
2018-03-28T21:09:14.825Z,24.40
2018-03-28T21:11:43.416Z,25.98
2018-03-28T21:14:12.624Z,27.67
2018-03-28T21:16:41.044Z,29.45
2018-03-28T21:19:09.681Z,25.42
2018-03-28T21:21:38.321Z,26.95
2018-03-28T21:24:06.930Z,27.15
2018-03-28T21:26:36.511Z,24.67
2018-03-28T21:29:04.877Z,27.42
2018-03-28T21:31:33.596Z,28.30
2018-03-28T21:34:02.000Z,35.78
2018-03-28T21:36:30.366Z,20.23
2018-03-28T21:38:58.752Z,35.42
2018-03-28T21:41:27.203Z,31.58
2018-03-28T21:43:55.553Z,29.00
2018-03-28T21:46:24.070Z,31.02
2018-03-28T21:48:52.572Z,38.45
2018-03-28T21:51:21.245Z,28.67
2018-03-28T21:53:50.008Z,36.70
2018-03-28T21:56:20.730Z,33.65
2018-03-28T21:58:49.273Z,36.28
2018-03-28T22:01:18.981Z,34.40
2018-03-28T22:03:47.520Z,30.37
2018-03-28T22:06:16.106Z,30.48
2018-03-28T22:08:45.754Z,35.50
2018-03-28T22:11:14.192Z,35.85
2018-03-28T22:13:49.093Z,34.50
2018-03-28T22:16:17.561Z,33.47
2018-03-28T22:18:46.015Z,31.17
2018-03-28T22:21:14.862Z,31.67
2018-03-28T22:23:43.420Z,29.00
2018-03-28T22:26:12.113Z,32.22
2018-03-28T22:28:41.564Z,30.60
2018-03-28T22:31:09.975Z,32.72
2018-03-28T22:33:39.457Z,35.00
2018-03-28T22:36:07.879Z,38.60
2018-03-28T22:38:36.230Z,32.03
2018-03-28T22:41:04.650Z,33.25
2018-03-28T22:43:33.129Z,38.40
2018-03-28T22:46:01.489Z,31.10
2018-03-28T22:48:29.865Z,32.97
2018-03-28T22:50:59.302Z,37.33
2018-03-28T22:53:27.720Z,32.45
2018-03-28T22:55:56.090Z,36.80
2018-03-28T22:58:24.513Z,33.28
2018-03-28T23:00:52.954Z,34.90
2018-03-28T23:03:21.538Z,40.90
2018-03-28T23:05:50.253Z,35.85
2018-03-28T23:08:18.739Z,31.92
2018-03-28T23:10:47.289Z,35.60
2018-03-28T23:13:17.842Z,32.50
2018-03-28T23:15:46.293Z,30.77
2018-03-28T23:18:15.462Z,33.30
2018-03-28T23:20:45.109Z,37.95
2018-03-28T23:23:13.691Z,31.35
2018-03-28T23:25:42.226Z,34.28
2018-03-28T23:28:10.777Z,35.42
2018-03-28T23:30:39.165Z,26.83
2018-03-28T23:33:07.567Z,34.03
2018-03-28T23:35:35.983Z,31.08
2018-03-28T23:38:04.324Z,25.23
2018-03-28T23:40:32.732Z,33.70
2018-03-28T23:43:01.653Z,32.60
2018-03-28T23:45:30.075Z,33.10
2018-03-28T23:47:58.471Z,31.37
2018-03-28T23:50:27.772Z,27.08
2018-03-28T23:52:56.189Z,30.58
2018-03-28T23:55:24.585Z,36.40
2018-03-28T23:57:53.628Z,27.50
